Time;durP1;ratioP1;P1;durP2;ratioP2;P2;SDS_P1;SDS_P2;PMS_P1;PMS_P2;Temp;Humidity;BMP_temperature;BMP_pressure;BME280_temperature;BME280_humidity;BME280_pressure;Samples;Min_cycle;Max_cycle;Signal;HPM_P1;HPM_P2
2021/09/01 00:00:38;;;;;;;23.35;8.40;;;;;;;19.57;58.74;100566.42;1701200;83;21095;-61
2021/09/01 00:03:05;;;;;;;16.62;8.00;;;;;;;19.57;59.24;100567.78;1710464;83;21219;-61
2021/09/01 00:05:32;;;;;;;17.70;8.20;;;;;;;19.56;59.38;100564.66;1711453;83;21111;-60
2021/09/01 00:07:59;;;;;;;16.10;8.08;;;;;;;19.55;59.68;100566.52;1710414;83;21065;-59
2021/09/01 00:10:25;;;;;;;15.53;7.67;;;;;;;19.53;59.94;100564.89;1710964;83;21528;-60
2021/09/01 00:12:52;;;;;;;22.42;8.28;;;;;;;19.54;60.41;100565.27;1705484;82;21140;-60
2021/09/01 00:15:20;;;;;;;14.98;8.25;;;;;;;19.57;60.67;100559.63;1706781;83;21083;-61
2021/09/01 00:17:47;;;;;;;16.97;8.28;;;;;;;19.59;60.83;100561.22;1702882;83;21096;-59
2021/09/01 00:20:13;;;;;;;13.40;7.45;;;;;;;19.60;61.09;100556.67;1710790;83;21577;-61
2021/09/01 00:22:40;;;;;;;12.43;7.45;;;;;;;19.57;61.48;100557.75;1710329;83;21651;-61
2021/09/01 00:25:08;;;;;;;15.45;7.08;;;;;;;19.57;61.73;100551.47;1710450;82;21150;-61
2021/09/01 00:27:35;;;;;;;15.85;6.65;;;;;;;19.57;61.97;100554.19;1710434;83;21076;-61
2021/09/01 00:30:01;;;;;;;13.53;6.78;;;;;;;19.58;62.20;100550.48;1710827;83;21017;-61
2021/09/01 00:32:27;;;;;;;14.80;6.72;;;;;;;19.60;62.30;100552.59;1713134;83;21075;-61
2021/09/01 00:34:54;;;;;;;13.10;6.55;;;;;;;19.59;62.46;100553.06;1705191;83;21097;-61
2021/09/01 00:37:22;;;;;;;14.63;6.90;;;;;;;19.57;62.71;100548.23;1711318;83;21055;-61
2021/09/01 00:39:50;;;;;;;10.38;6.33;;;;;;;19.57;62.80;100552.31;1710324;83;21495;-61
2021/09/01 00:42:17;;;;;;;11.90;6.62;;;;;;;19.55;62.91;100552.05;1711883;83;21076;-61
2021/09/01 00:44:45;;;;;;;11.12;6.37;;;;;;;19.55;63.04;100546.61;1708625;83;21055;-61
2021/09/01 00:47:21;;;;;;;12.88;6.30;;;;;;;19.56;63.03;100546.98;1711642;83;20949;-61
2021/09/01 00:49:48;;;;;;;13.43;6.53;;;;;;;19.56;62.96;100544.27;1707713;83;21119;-61
2021/09/01 00:52:15;;;;;;;21.17;6.55;;;;;;;19.57;62.86;100542.80;1710905;83;21107;-61
2021/09/01 00:54:41;;;;;;;12.00;5.95;;;;;;;19.59;62.90;100538.11;1698919;83;21659;-61
2021/09/01 00:57:08;;;;;;;15.58;6.33;;;;;;;19.59;62.89;100539.47;1710951;83;21446;-61
2021/09/01 00:59:39;;;;;;;11.00;6.00;;;;;;;19.60;62.96;100538.99;1691059;83;21150;-61
2021/09/01 01:02:06;;;;;;;14.07;6.10;;;;;;;19.60;62.98;100538.48;1710953;83;21474;-61
2021/09/01 01:04:33;;;;;;;12.85;5.67;;;;;;;19.61;62.88;100536.65;1707846;82;21008;-61
2021/09/01 01:07:09;;;;;;;9.85;5.50;;;;;;;19.59;62.63;100531.31;1705697;83;21000;-61
2021/09/01 01:09:36;;;;;;;;;;;;;;;19.60;62.15;100526.75;1712136;82;21052;-62
2021/09/01 01:12:19;;;;;;;10.95;5.42;;;;;;;19.59;61.71;100525.02;1707163;83;20444;-62
2021/09/01 01:14:47;;;;;;;6.67;4.45;;;;;;;19.57;61.57;100521.56;1711493;82;21431;-60
2021/09/01 01:17:17;;;;;;;7.22;4.37;;;;;;;19.58;61.44;100519.21;1710049;83;22102;-62
2021/09/01 01:19:49;;;;;;;7.33;4.08;;;;;;;19.58;61.13;100515.13;1702135;83;21060;-62
2021/09/01 01:22:20;;;;;;;8.05;3.85;;;;;;;19.60;60.32;100513.16;1672494;85;21481;-60
2021/09/01 01:25:06;;;;;;;4.75;3.65;;;;;;;19.63;59.75;100507.48;1665250;85;21497;-63
2021/09/01 01:27:42;;;;;;;8.88;3.75;;;;;;;19.66;59.09;100505.00;1669877;85;21021;-60
2021/09/01 01:30:19;;;;;;;;;;;;;;;19.68;58.63;100503.91;1682260;85;21085;-60
2021/09/01 01:32:49;;;;;;;14.33;3.77;;;;;;;19.72;58.28;100502.67;1661563;84;20206;-61
2021/09/01 01:35:28;;;;;;;12.53;4.22;;;;;;;19.75;58.08;100501.58;1659362;85;21442;-61
2021/09/01 01:37:56;;;;;;;7.85;4.60;;;;;;;19.76;57.97;100497.36;1680597;83;21037;-61
2021/09/01 01:40:23;;;;;;;8.13;4.83;;;;;;;19.73;59.19;100494.89;1672268;85;21208;-61
2021/09/01 01:42:53;;;;;;;11.43;4.92;;;;;;;19.70;60.35;100492.41;1683469;84;21104;-61
2021/09/01 01:45:18;;;;;;;9.35;4.62;;;;;;;19.66;60.87;100487.31;1681847;84;21133;-60
2021/09/01 01:47:45;;;;;;;8.23;4.85;;;;;;;19.63;61.08;100485.73;1674973;85;21031;-61
2021/09/01 01:50:11;;;;;;;8.43;4.87;;;;;;;19.60;61.32;100477.81;1653736;85;21474;-60
2021/09/01 01:52:38;;;;;;;7.20;4.83;;;;;;;19.58;61.25;100472.98;1667035;85;21531;-61
2021/09/01 01:55:07;;;;;;;8.33;5.08;;;;;;;19.56;61.30;100470.38;1710078;82;21068;-61
2021/09/01 01:57:33;;;;;;;8.28;4.15;;;;;;;19.54;61.40;100464.67;1656462;85;21065;-60
2021/09/01 02:00:00;;;;;;;5.83;3.83;;;;;;;19.54;61.46;100459.23;1711845;83;20953;-61
2021/09/01 02:02:30;;;;;;;8.53;3.87;;;;;;;19.52;61.35;100457.13;1699797;83;21074;-60
2021/09/01 02:04:56;;;;;;;8.05;4.00;;;;;;;19.53;60.95;100452.06;1710285;83;21202;-61
2021/09/01 02:07:22;;;;;;;7.55;3.45;;;;;;;19.53;60.33;100452.06;1710179;83;21101;-60
2021/09/01 02:09:49;;;;;;;12.33;4.30;;;;;;;19.55;59.80;100452.80;1704869;83;21285;-60
2021/09/01 02:12:16;;;;;;;7.95;3.17;;;;;;;19.56;60.31;100450.45;1695095;83;22116;-61
2021/09/01 02:14:43;;;;;;;8.35;3.45;;;;;;;19.55;59.94;100452.33;1710449;83;21111;-61
2021/09/01 02:17:09;;;;;;;6.25;3.55;;;;;;;19.57;59.68;100456.30;1709514;83;21107;-61
2021/09/01 02:19:37;;;;;;;7.08;4.03;;;;;;;19.60;59.42;100448.75;1708246;82;21024;-61
2021/09/01 02:22:04;;;;;;;6.35;3.70;;;;;;;19.66;59.43;100450.13;1695128;83;21073;-60
2021/09/01 02:24:32;;;;;;;7.37;3.62;;;;;;;19.68;59.57;100452.75;1709045;83;21119;-60
2021/09/01 02:26:58;;;;;;;7.17;3.98;;;;;;;19.67;59.66;100449.14;1709155;83;21048;-60
2021/09/01 02:29:24;;;;;;;8.95;3.70;;;;;;;19.69;59.81;100449.03;1703040;83;21609;-60
2021/09/01 02:31:51;;;;;;;6.45;3.27;;;;;;;19.71;59.97;100456.58;1710431;83;21053;-60
2021/09/01 02:34:17;;;;;;;6.28;3.67;;;;;;;19.71;60.15;100449.78;1711409;83;21088;-60
2021/09/01 02:36:44;;;;;;;7.30;3.58;;;;;;;19.69;60.17;100451.25;1699720;83;21088;-60
2021/09/01 02:39:11;;;;;;;9.90;4.12;;;;;;;19.70;60.26;100451.62;1695403;83;21088;-60
2021/09/01 02:41:37;;;;;;;9.33;4.00;;;;;;;19.69;60.29;100453.97;1706065;83;21129;-60
2021/09/01 02:44:05;;;;;;;4.72;3.35;;;;;;;19.71;60.29;100456.06;1710862;83;21103;-60
2021/09/01 02:46:32;;;;;;;5.72;3.33;;;;;;;19.72;60.34;100460.52;1704391;83;21032;-60
2021/09/01 02:48:59;;;;;;;5.97;3.90;;;;;;;19.71;60.37;100462.87;1711256;83;21064;-60
2021/09/01 02:51:26;;;;;;;8.83;3.83;;;;;;;19.76;60.43;100459.28;1711208;82;21016;-62
2021/09/01 02:53:53;;;;;;;9.45;3.47;;;;;;;19.81;60.45;100461.65;1710969;83;21107;-60
2021/09/01 02:56:20;;;;;;;6.33;3.33;;;;;;;19.84;60.47;100460.55;1709890;83;21079;-60
2021/09/01 02:58:47;;;;;;;8.13;3.42;;;;;;;19.92;60.30;100451.83;1709859;83;21310;-60
2021/09/01 03:01:14;;;;;;;8.20;3.47;;;;;;;20.00;60.04;100446.11;1707331;83;21116;-62
2021/09/01 03:03:41;;;;;;;5.67;3.77;;;;;;;20.08;60.30;100450.10;1699820;83;21100;-62
2021/09/01 03:06:09;;;;;;;7.17;3.98;;;;;;;20.17;60.65;100441.18;1701375;81;21508;-62
2021/09/01 03:08:37;;;;;;;6.78;4.00;;;;;;;20.26;61.48;100445.02;1703283;83;21484;-61
2021/09/01 03:11:05;;;;;;;6.60;3.58;;;;;;;20.32;62.39;100437.70;1694037;83;21131;-61
2021/09/01 03:13:33;;;;;;;6.10;3.67;;;;;;;20.38;63.34;100437.70;1706628;83;21056;-61
2021/09/01 03:16:02;;;;;;;7.03;3.87;;;;;;;20.42;64.03;100446.87;1699630;83;21029;-61
2021/09/01 03:18:29;;;;;;;7.22;3.75;;;;;;;20.43;65.41;100438.19;1706386;83;21138;-61
2021/09/01 03:20:56;;;;;;;5.75;4.08;;;;;;;20.42;66.55;100437.82;1699443;83;21325;-60
2021/09/01 03:23:23;;;;;;;6.87;3.80;;;;;;;20.43;67.59;100440.91;1710626;83;21091;-60
2021/09/01 03:25:50;;;;;;;6.10;4.03;;;;;;;20.43;68.25;100436.83;1701399;83;21058;-60
2021/09/01 03:28:17;;;;;;;6.95;3.90;;;;;;;20.44;68.77;100439.92;1699802;83;21075;-60
2021/09/01 03:30:44;;;;;;;9.90;4.47;;;;;;;20.47;69.08;100441.06;1704138;83;21129;-62
2021/09/01 03:33:10;;;;;;;11.18;4.10;;;;;;;20.49;69.29;100443.16;1695896;83;21296;-63
2021/09/01 03:35:37;;;;;;;9.75;4.50;;;;;;;20.53;69.55;100445.99;1698115;83;21504;-63
2021/09/01 03:38:04;;;;;;;5.42;3.52;;;;;;;20.56;69.88;100441.65;1700079;83;21544;-62
2021/09/01 03:40:32;;;;;;;6.92;4.00;;;;;;;20.60;69.96;100441.76;1699568;83;21040;-61
2021/09/01 03:42:59;;;;;;;9.65;3.72;;;;;;;20.65;70.01;100447.31;1705021;83;22364;-61
2021/09/01 03:45:26;;;;;;;7.15;4.10;;;;;;;20.71;70.06;100448.19;1706953;83;21103;-61
2021/09/01 03:47:53;;;;;;;10.90;3.45;;;;;;;20.77;70.07;100440.86;1708307;83;21638;-62
2021/09/01 03:50:22;;;;;;;9.20;4.47;;;;;;;20.84;70.11;100447.55;1705995;83;21497;-61
2021/09/01 03:52:48;;;;;;;5.17;3.90;;;;;;;20.93;70.00;100448.64;1708257;83;21104;-61
2021/09/01 03:55:16;;;;;;;10.28;3.95;;;;;;;21.01;69.80;100444.80;1696466;83;21691;-61
2021/09/01 03:57:43;;;;;;;10.20;4.22;;;;;;;21.12;69.58;100447.98;1702608;83;21032;-63
2021/09/01 04:00:12;;;;;;;12.88;4.50;;;;;;;21.22;69.43;100448.55;1704234;83;21051;-60
2021/09/01 04:02:39;;;;;;;20.32;4.87;;;;;;;21.30;68.99;100444.17;1702515;83;21104;-60
2021/09/01 04:05:07;;;;;;;10.70;4.20;;;;;;;21.37;68.56;100441.80;1710302;83;21494;-60
2021/09/01 04:07:34;;;;;;;13.80;4.40;;;;;;;21.42;68.24;100446.34;1711211;83;21134;-60
2021/09/01 04:10:01;;;;;;;16.27;4.72;;;;;;;21.51;68.13;100443.81;1709668;83;20993;-60
2021/09/01 04:12:28;;;;;;;13.62;4.05;;;;;;;21.58;68.19;100443.66;1709845;83;21533;-60
2021/09/01 04:14:56;;;;;;;17.87;4.55;;;;;;;21.64;68.36;100445.85;1710633;83;21104;-63
2021/09/01 04:17:25;;;;;;;18.27;4.10;;;;;;;21.70;68.59;100439.04;1709676;83;21077;-60
2021/09/01 04:19:52;;;;;;;7.30;4.25;;;;;;;21.80;68.93;100444.03;1710597;83;21658;-62
2021/09/01 04:22:18;;;;;;;9.83;4.15;;;;;;;21.97;69.12;100441.18;1710762;83;21131;-66
2021/09/01 04:24:45;;;;;;;11.22;4.25;;;;;;;22.19;69.32;100443.36;1711284;83;21064;-62
2021/09/01 04:27:12;;;;;;;10.38;4.62;;;;;;;22.42;69.20;100448.62;1709339;83;21138;-62
2021/09/01 04:29:39;;;;;;;16.32;4.90;;;;;;;22.63;68.76;100451.81;1698916;83;21120;-60
2021/09/01 04:32:07;;;;;;;15.03;5.03;;;;;;;22.78;68.14;100453.15;1711141;82;21534;-60
2021/09/01 04:34:34;;;;;;;11.85;4.80;;;;;;;22.85;68.04;100450.20;1709023;83;21528;-61
2021/09/01 04:37:01;;;;;;;11.88;5.05;;;;;;;22.94;68.00;100451.23;1710447;83;21045;-61
2021/09/01 04:39:28;;;;;;;13.88;4.90;;;;;;;23.03;68.06;100448.14;1710628;83;21052;-62
2021/09/01 04:41:55;;;;;;;8.25;4.10;;;;;;;23.08;68.45;100455.41;1710466;82;21092;-61
2021/09/01 04:44:24;;;;;;;16.02;5.47;;;;;;;23.10;68.78;100456.16;1701628;83;21083;-61
2021/09/01 04:46:51;;;;;;;10.48;4.42;;;;;;;23.11;68.87;100455.15;1709845;83;21116;-60
2021/09/01 04:49:18;;;;;;;10.13;4.30;;;;;;;23.13;67.84;100446.78;1711025;83;21644;-61
2021/09/01 04:51:44;;;;;;;8.68;4.20;;;;;;;23.07;67.33;100450.95;1710546;83;21068;-63
2021/09/01 04:54:12;;;;;;;9.13;4.58;;;;;;;23.03;67.44;100444.92;1708545;83;21059;-61
2021/09/01 04:56:38;;;;;;;14.40;4.72;;;;;;;23.04;67.81;100443.91;1711088;83;21113;-61
2021/09/01 04:59:05;;;;;;;18.45;4.80;;;;;;;23.13;67.99;100449.03;1710531;83;21005;-61
2021/09/01 05:01:33;;;;;;;6.17;3.90;;;;;;;23.27;67.96;100445.52;1704557;83;21092;-60
2021/09/01 05:04:00;;;;;;;9.43;4.15;;;;;;;23.36;67.87;100443.30;1710083;83;21605;-60
2021/09/01 05:06:27;;;;;;;10.80;3.80;;;;;;;23.46;67.97;100435.09;1711123;82;21079;-60
2021/09/01 05:08:54;;;;;;;5.92;3.37;;;;;;;23.56;68.17;100430.45;1717362;83;21119;-62
2021/09/01 05:11:23;;;;;;;5.37;3.00;;;;;;;23.69;68.60;100426.03;1714051;82;21067;-60
2021/09/01 05:13:51;;;;;;;8.23;3.35;;;;;;;23.83;69.27;100423.84;1714189;83;21265;-61
2021/09/01 05:16:18;;;;;;;8.45;3.12;;;;;;;24.00;69.54;100418.97;1715933;83;21056;-59
2021/09/01 05:18:45;;;;;;;6.65;3.10;;;;;;;24.23;69.45;100411.77;1712282;83;21091;-59
2021/09/01 05:21:13;;;;;;;5.33;3.20;;;;;;;24.47;68.73;100411.72;1717378;82;21127;-60
2021/09/01 05:23:42;;;;;;;6.53;2.90;;;;;;;24.69;67.18;100415.05;1716585;82;21557;-60
2021/09/01 05:26:08;;;;;;;5.42;3.10;;;;;;;24.87;65.94;100410.48;1713906;83;21071;-60
2021/09/01 05:28:36;;;;;;;8.33;3.65;;;;;;;25.04;64.00;100410.62;1712339;82;21048;-59
2021/09/01 05:31:06;;;;;;;9.48;3.08;;;;;;;25.18;63.30;100414.19;1713188;83;21068;-60
2021/09/01 05:33:37;;;;;;;7.03;2.90;;;;;;;25.27;62.49;100424.72;1716967;82;21106;-60
2021/09/01 05:36:06;;;;;;;6.58;3.40;;;;;;;25.40;61.13;100414.70;1715042;83;21017;-61
2021/09/01 05:38:35;;;;;;;8.33;3.37;;;;;;;25.52;60.58;100415.84;1714879;83;21044;-61
2021/09/01 05:41:03;;;;;;;14.75;3.98;;;;;;;25.73;60.96;100410.00;1715167;83;21112;-60
2021/09/01 05:43:31;;;;;;;6.85;4.08;;;;;;;26.05;61.23;100407.61;1714450;82;21477;-61
2021/09/01 05:45:58;;;;;;;10.38;4.10;;;;;;;26.54;59.90;100407.84;1714814;82;22355;-59
2021/09/01 05:48:25;;;;;;;8.58;3.90;;;;;;;27.07;57.57;100409.52;1715795;83;21100;-61
2021/09/01 05:50:55;;;;;;;8.80;3.60;;;;;;;27.38;56.01;100404.70;1716035;82;21616;-62
2021/09/01 05:53:24;;;;;;;7.10;3.40;;;;;;;27.46;55.08;100400.05;1711613;82;21004;-62
2021/09/01 05:55:52;;;;;;;9.70;3.50;;;;;;;27.45;53.14;100404.38;1716553;81;21059;-62
2021/09/01 05:58:24;;;;;;;9.60;3.45;;;;;;;27.35;52.49;100407.80;1712689;81;21442;-62
2021/09/01 06:00:58;;;;;;;8.08;3.67;;;;;;;27.26;52.48;100405.56;1715117;81;21472;-62
2021/09/01 06:03:34;;;;;;;6.12;3.08;;;;;;;27.25;52.53;100406.59;1711146;83;25846;-62
2021/09/01 06:06:02;;;;;;;8.25;3.05;;;;;;;27.53;52.22;100400.79;1713523;81;21068;-62
2021/09/01 06:08:34;;;;;;;4.78;2.90;;;;;;;28.01;50.91;100396.20;1709219;82;21550;-62
2021/09/01 06:11:05;;;;;;;6.65;3.15;;;;;;;28.38;49.58;100401.23;1709876;83;21553;-62
2021/09/01 06:13:33;;;;;;;4.87;2.95;;;;;;;28.50;48.95;100405.82;1712908;82;21146;-62
2021/09/01 06:16:00;;;;;;;9.33;3.70;;;;;;;28.45;48.77;100405.00;1712102;83;21079;-61
2021/09/01 06:18:27;;;;;;;5.72;3.00;;;;;;;28.37;48.91;100407.78;1710790;83;21151;-61
2021/09/01 06:20:55;;;;;;;7.60;3.30;;;;;;;28.30;49.18;100391.97;1698890;83;21091;-60
2021/09/01 06:23:22;;;;;;;3.72;2.67;;;;;;;28.26;49.14;100396.13;1708071;82;21815;-61
2021/09/01 06:25:49;;;;;;;8.58;2.72;;;;;;;28.19;48.49;100396.52;1708980;82;21064;-60
2021/09/01 06:28:17;;;;;;;7.20;2.77;;;;;;;28.12;47.02;100391.32;1705287;82;21139;-61
2021/09/01 06:30:46;;;;;;;4.95;3.02;;;;;;;28.06;46.85;100393.42;1705083;82;21155;-61
2021/09/01 06:33:13;;;;;;;6.55;2.52;;;;;;;28.05;46.76;100387.58;1705586;82;21114;-60
2021/09/01 06:35:41;;;;;;;2.87;2.40;;;;;;;28.07;45.44;100385.50;1698270;82;21925;-61
2021/09/01 06:38:09;;;;;;;4.97;2.58;;;;;;;28.06;45.33;100394.80;1702002;82;21049;-61
2021/09/01 06:40:41;;;;;;;6.12;2.90;;;;;;;28.09;45.30;100391.69;1705236;82;22466;-61
2021/09/01 06:43:11;;;;;;;5.22;2.65;;;;;;;28.12;44.62;100391.32;1705041;83;21091;-63
2021/09/01 06:45:40;;;;;;;4.87;2.40;;;;;;;28.15;44.32;100396.47;1704981;82;21568;-59
2021/09/01 06:48:07;;;;;;;7.90;3.02;;;;;;;28.20;42.93;100398.73;1703546;82;20956;-61
2021/09/01 06:50:35;;;;;;;5.00;2.20;;;;;;;28.19;41.34;100399.27;1698186;83;21055;-61
2021/09/01 06:53:02;;;;;;;6.83;2.58;;;;;;;28.26;40.88;100396.63;1705274;82;21541;-61
2021/09/01 06:55:29;;;;;;;4.20;2.30;;;;;;;28.32;39.88;100395.94;1712285;82;21092;-61
2021/09/01 06:57:56;;;;;;;6.50;2.27;;;;;;;28.37;39.93;100405.02;1706262;83;21537;-61
2021/09/01 07:00:23;;;;;;;7.90;2.50;;;;;;;28.35;40.17;100404.34;1699299;83;21862;-60
2021/09/01 07:02:50;;;;;;;5.08;2.35;;;;;;;28.31;40.45;100403.34;1706610;82;21493;-62
2021/09/01 07:05:18;;;;;;;5.87;2.40;;;;;;;28.36;40.18;100401.94;1707106;82;21091;-61
2021/09/01 07:07:47;;;;;;;4.30;2.10;;;;;;;28.39;39.88;100400.19;1694059;82;21094;-60
2021/09/01 07:10:14;;;;;;;4.10;2.12;;;;;;;28.41;39.06;100396.77;1682194;83;21055;-60
2021/09/01 07:12:41;;;;;;;4.03;2.47;;;;;;;28.42;37.96;100399.86;1679512;83;21141;-59
2021/09/01 07:15:09;;;;;;;5.83;2.70;;;;;;;28.42;37.64;100399.86;1677244;83;21092;-60
2021/09/01 07:17:38;;;;;;;5.40;2.85;;;;;;;28.44;37.43;100392.27;1680678;83;21179;-60
2021/09/01 07:20:07;;;;;;;3.65;2.10;;;;;;;28.48;37.11;100393.61;1681586;83;21114;-61
2021/09/01 07:22:34;;;;;;;6.92;2.60;;;;;;;28.49;36.90;100393.95;1680575;83;21514;-61
2021/09/01 07:25:04;;;;;;;2.92;2.58;;;;;;;28.51;36.80;100389.11;1683962;83;21084;-60
2021/09/01 07:27:31;;;;;;;3.75;2.02;;;;;;;28.55;36.19;100394.59;1681385;83;21175;-61
2021/09/01 07:30:00;;;;;;;5.33;1.87;;;;;;;28.59;36.12;100381.31;1681085;83;21072;-61
2021/09/01 07:32:27;;;;;;;4.85;2.17;;;;;;;28.64;35.04;100388.52;1680071;83;21104;-59
2021/09/01 07:34:54;;;;;;;3.92;2.00;;;;;;;28.73;34.55;100390.17;1678188;83;21499;-59
2021/09/01 07:37:21;;;;;;;4.28;2.08;;;;;;;28.73;34.08;100385.19;1682493;83;23201;-60
2021/09/01 07:39:48;;;;;;;3.95;2.30;;;;;;;28.70;33.67;100386.94;1681152;83;21151;-60
2021/09/01 07:42:15;;;;;;;5.55;2.50;;;;;;;28.65;33.83;100382.50;1682587;83;21096;-60
2021/09/01 07:44:43;;;;;;;2.10;1.90;;;;;;;28.63;33.77;100379.03;1681997;83;21040;-60
2021/09/01 07:47:10;;;;;;;3.70;2.85;;;;;;;28.63;33.47;100384.55;1680694;83;21478;-61
2021/09/01 07:49:38;;;;;;;2.12;1.72;;;;;;;28.63;33.59;100377.66;1679482;83;21811;-61
2021/09/01 07:52:05;;;;;;;2.12;1.77;;;;;;;28.63;33.84;100377.16;1677046;83;21708;-58
2021/09/01 07:54:33;;;;;;;3.47;2.02;;;;;;;28.65;33.75;100375.60;1680707;83;21172;-60
2021/09/01 07:57:00;;;;;;;6.65;1.80;;;;;;;28.70;33.44;100369.02;1679145;83;21108;-60
2021/09/01 07:59:28;;;;;;;6.65;2.27;;;;;;;28.70;33.53;100375.91;1679788;83;21705;-60
2021/09/01 08:01:55;;;;;;;6.50;2.02;;;;;;;28.73;33.27;100374.16;1681974;83;21132;-60
2021/09/01 08:04:23;;;;;;;4.10;2.52;;;;;;;28.71;33.74;100374.87;1680731;83;21495;-62
2021/09/01 08:06:50;;;;;;;3.70;2.30;;;;;;;28.74;33.88;100375.87;1681446;83;21577;-59
2021/09/01 08:09:20;;;;;;;6.62;2.62;;;;;;;28.77;33.75;100369.98;1709141;82;21067;-61
2021/09/01 08:11:47;;;;;;;6.30;2.50;;;;;;;28.76;33.71;100371.03;1673350;84;21544;-61
2021/09/01 08:14:14;;;;;;;6.62;2.50;;;;;;;28.73;33.86;100365.88;1705423;82;21790;-59
2021/09/01 08:16:44;;;;;;;6.20;4.10;;;;;;;28.70;33.94;100364.88;1710667;82;21127;-59
2021/09/01 08:19:11;;;;;;;4.90;3.17;;;;;;;28.68;33.72;100368.34;1705164;82;21341;-61
2021/09/01 08:21:38;;;;;;;7.20;3.90;;;;;;;28.68;33.74;100361.45;1673055;84;21430;-61
2021/09/01 08:24:07;;;;;;;4.62;2.60;;;;;;;28.65;33.81;100364.58;1703191;82;21311;-60
2021/09/01 08:26:38;;;;;;;4.35;3.30;;;;;;;28.68;33.88;100360.06;1703946;82;21481;-60
2021/09/01 08:29:03;;;;;;;10.20;5.72;;;;;;;28.71;33.92;100359.70;1704481;82;21606;-61
2021/09/01 08:31:31;;;;;;;7.20;3.92;;;;;;;28.74;33.56;100361.58;1706419;82;21715;-61
2021/09/01 08:33:59;;;;;;;7.85;4.22;;;;;;;28.78;33.35;100349.64;1707327;82;21526;-60
2021/09/01 08:36:32;;;;;;;14.50;6.05;;;;;;;28.79;33.63;100351.38;1707506;82;21080;-60
2021/09/01 08:38:56;;;;;;;8.28;3.72;;;;;;;28.85;33.72;100353.43;1707637;82;21155;-59
2021/09/01 08:41:23;;;;;;;5.25;3.02;;;;;;;28.88;33.60;100347.54;1705703;82;21107;-59
2021/09/01 08:43:50;;;;;;;6.12;3.12;;;;;;;28.91;33.58;100340.78;1689731;82;21080;-60
2021/09/01 08:46:18;;;;;;;9.88;7.28;;;;;;;28.94;33.52;100344.54;1703455;82;22044;-61
2021/09/01 08:48:48;;;;;;;9.35;4.40;;;;;;;28.97;33.40;100339.19;1702821;82;21088;-58
2021/09/01 08:51:19;;;;;;;5.17;3.55;;;;;;;28.97;33.21;100335.05;1706850;82;21125;-58
2021/09/01 08:53:49;;;;;;;9.53;4.30;;;;;;;29.01;33.15;100343.28;1706164;82;21766;-60
2021/09/01 08:56:19;;;;;;;4.92;3.35;;;;;;;29.02;32.96;100329.31;1702297;82;21076;-61
2021/09/01 08:58:46;;;;;;;5.97;2.50;;;;;;;29.05;32.71;100337.72;1706607;82;21053;-61
2021/09/01 09:01:45;;;;;;;4.22;2.20;;;;;;;29.08;32.52;100327.72;1701178;82;21060;-62
2021/09/01 09:04:29;;;;;;;2.98;1.90;;;;;;;29.12;32.75;100326.30;1650218;85;21905;-61
2021/09/01 09:07:00;;;;;;;4.30;2.02;;;;;;;29.19;32.46;100330.55;1650323;85;21474;-61
2021/09/01 09:09:36;;;;;;;2.15;1.87;;;;;;;29.22;32.43;100326.55;1702589;82;21057;-59
2021/09/01 09:12:09;;;;;;;2.17;1.85;;;;;;;29.19;32.02;100328.30;1703635;82;21067;-62
2021/09/01 09:14:39;;;;;;;3.60;2.12;;;;;;;29.16;32.37;100326.25;1705928;82;20994;-61
2021/09/01 09:17:12;;;;;;;3.08;2.17;;;;;;;29.16;32.50;100327.64;1702542;82;21566;-60
2021/09/01 09:20:32;;;;;;;3.75;2.70;;;;;;;29.22;32.00;100319.14;1706704;82;21085;-60
2021/09/01 09:23:02;;;;;;;3.45;2.70;;;;;;;29.28;31.79;100311.48;1704375;82;21480;-61
2021/09/01 09:25:32;;;;;;;4.03;2.83;;;;;;;29.30;32.07;100314.06;1702428;82;21118;-59
2021/09/01 09:28:05;;;;;;;5.42;2.27;;;;;;;29.30;31.99;100312.69;1702553;82;21125;-60
2021/09/01 09:30:38;;;;;;;;;;;;;;;29.34;31.72;100302.97;1705663;82;21030;-58
2021/09/01 09:33:21;;;;;;;7.50;2.55;;;;;;;29.40;31.76;100304.97;1701403;82;21216;-61
2021/09/01 09:36:04;;;;;;;3.08;2.22;;;;;;;29.44;31.49;100311.02;1703193;82;21089;-61
2021/09/01 09:38:53;;;;;;;3.42;2.30;;;;;;;29.44;31.59;100302.19;1660773;82;21505;-59
2021/09/01 09:41:37;;;;;;;6.15;2.20;;;;;;;29.42;31.64;100301.52;1684898;82;20896;-60
2021/09/01 09:44:12;;;;;;;;;;;;;;;29.43;31.59;100293.58;1681728;82;20973;-59
2021/09/01 09:46:47;;;;;;;5.35;2.37;;;;;;;29.42;31.81;100303.45;1703015;82;20364;-61
2021/09/01 09:49:22;;;;;;;5.22;2.60;;;;;;;29.47;31.77;100294.57;1700931;82;21059;-61
2021/09/01 09:51:55;;;;;;;5.55;2.50;;;;;;;29.50;31.75;100296.95;1646600;84;20982;-62
2021/09/01 09:54:24;;;;;;;9.23;2.77;;;;;;;29.44;31.79;100290.30;1643406;86;21013;-61
2021/09/01 09:57:07;;;;;;;5.15;3.00;;;;;;;29.41;31.75;100286.55;1640310;85;21742;-59
2021/09/01 09:59:37;;;;;;;4.28;2.72;;;;;;;29.33;32.04;100295.73;1672085;84;21530;-61
2021/09/01 10:02:05;;;;;;;3.62;2.35;;;;;;;29.28;32.13;100285.77;1624880;87;21030;-61
2021/09/01 10:04:34;;;;;;;4.65;2.85;;;;;;;29.28;32.29;100291.28;1673595;84;21940;-61
2021/09/01 10:07:03;;;;;;;3.62;2.35;;;;;;;29.25;32.04;100295.80;1659886;85;20971;-61
2021/09/01 10:09:30;;;;;;;6.30;2.55;;;;;;;29.25;31.94;100296.67;1659674;84;21073;-59
2021/09/01 10:11:57;;;;;;;4.95;2.45;;;;;;;29.24;31.96;100294.09;1671667;83;21057;-60
2021/09/01 10:14:24;;;;;;;3.92;2.30;;;;;;;29.25;32.15;100291.66;1687079;83;21588;-60
2021/09/01 10:17:00;;;;;;;10.45;2.52;;;;;;;29.34;32.06;100295.20;1706681;83;21139;-59
2021/09/01 10:19:45;;;;;;;5.87;2.50;;;;;;;29.33;31.76;100297.12;1708325;82;21560;-60
2021/09/01 10:22:12;;;;;;;3.10;2.50;;;;;;;29.34;31.70;100290.55;1689559;82;21087;-61
2021/09/01 10:24:45;;;;;;;4.95;2.30;;;;;;;29.35;31.69;100290.88;1708256;82;21431;-59
2021/09/01 10:27:25;;;;;;;5.10;2.30;;;;;;;29.31;31.74;100289.55;1709097;82;20961;-60
2021/09/01 10:30:05;;;;;;;7.65;2.50;;;;;;;29.31;31.82;100293.69;1708142;82;20940;-60
2021/09/01 10:32:43;;;;;;;4.58;2.80;;;;;;;29.30;31.80;100287.84;1706557;82;21111;-59
2021/09/01 10:35:19;;;;;;;4.55;3.27;;;;;;;29.28;31.85;100282.49;1706458;82;21109;-59
2021/09/01 10:37:51;;;;;;;10.72;2.90;;;;;;;29.29;31.78;100279.20;1708391;82;21064;-60
2021/09/01 10:40:27;;;;;;;9.65;2.92;;;;;;;29.31;31.69;100282.65;1710200;82;21727;-60
2021/09/01 10:43:00;;;;;;;6.67;3.02;;;;;;;29.35;31.69;100290.88;1710226;82;21604;-59
2021/09/01 10:45:37;;;;;;;7.20;3.30;;;;;;;29.31;31.90;100289.55;1708836;82;20973;-59
2021/09/01 10:48:09;;;;;;;4.17;2.75;;;;;;;29.32;31.94;100280.22;1707873;82;21555;-61
2021/09/01 10:50:44;;;;;;;4.85;3.08;;;;;;;29.37;31.37;100279.12;1701916;82;21028;-59
2021/09/01 10:53:28;;;;;;;2.95;2.35;;;;;;;29.35;31.49;100275.70;1706140;82;21581;-58
2021/09/01 10:56:03;;;;;;;3.00;2.45;;;;;;;29.31;31.35;100279.89;1705561;82;21094;-59
2021/09/01 11:11:14;;;;;;;3.33;2.02;;;;;;;29.48;31.27;100260.39;1693600;79;69712;-96
2021/09/01 11:13:44;;;;;;;3.77;2.15;;;;;;;29.33;31.49;100275.03;1687222;84;21061;-92
2021/09/01 11:16:25;;;;;;;3.40;1.90;;;;;;;29.24;31.58;100262.34;1649034;84;21055;-91
2021/09/01 11:19:11;;;;;;;5.35;3.17;;;;;;;29.25;31.47;100259.41;1670402;84;21060;-93
2021/09/01 11:21:59;;;;;;;;;;;;;;;;;;;;;
2021/09/01 11:24:37;;;;;;;4.72;3.10;;;;;;;29.44;31.36;100248.89;1638671;86;21077;-92
2021/09/01 12:00:33;;;;;;;;;;;;;;;;;;;;;
2021/09/01 12:11:26;;;;;;;2.72;1.22;;;;;;;29.63;30.07;100205.18;1503220;93;21230;-93
2021/09/01 12:14:17;;;;;;;2.77;1.10;;;;;;;29.70;29.72;100206.11;1504480;93;21105;-93
2021/09/01 12:16:46;;;;;;;5.28;1.12;;;;;;;29.80;29.63;100193.37;1537935;90;21096;-93
2021/09/01 12:19:15;;;;;;;6.28;1.60;;;;;;;29.85;29.30;100199.16;1594027;88;21106;-92
2021/09/01 12:21:54;;;;;;;4.87;1.57;;;;;;;29.88;29.62;100197.39;1643776;86;21632;-91
2021/09/01 12:24:26;;;;;;;2.90;1.40;;;;;;;29.99;29.44;100194.13;1694003;84;21186;-93
2021/09/01 12:27:07;;;;;;;4.15;1.60;;;;;;;30.11;28.82;100190.87;1692383;84;21150;-94
2021/09/01 12:29:39;;;;;;;4.37;1.47;;;;;;;30.11;28.83;100192.25;1672138;84;21077;-92
2021/09/01 12:32:09;;;;;;;2.50;1.20;;;;;;;30.08;28.76;100194.03;1691547;84;21063;-93